Time;durP1;ratioP1;P1;durP2;ratioP2;P2;SDS_P1;SDS_P2;PMS_P1;PMS_P2;Temp;Humidity;BMP_temperature;BMP_pressure;BME280_temperature;BME280_humidity;BME280_pressure;Samples;Min_cycle;Max_cycle;Signal;HPM_P1;HPM_P2
2021/05/21 00:02:07;;;;;;;11.07;9.97;;;;;;;;;;5055206;28;20585;-81
2021/05/21 00:04:32;;;;;;;11.43;10.20;;;;;;;;;;5054371;28;20654;-81
2021/05/21 00:06:58;;;;;;;12.37;10.17;;;;;;;;;;5054518;28;20176;-81
2021/05/21 00:09:23;;;;;;;11.40;9.97;;;;;;;;;;5054548;28;20200;-81
2021/05/21 00:11:48;;;;;;;13.10;10.20;;;;;;;;;;5054427;28;20257;-81
2021/05/21 00:14:14;;;;;;;11.00;9.83;;;;;;;;;;5054106;28;20604;-81
2021/05/21 00:16:39;;;;;;;10.97;9.87;;;;;;;;;;5054146;28;20168;-81
2021/05/21 00:19:04;;;;;;;12.70;9.97;;;;;;;;;;5054572;28;20164;-81
2021/05/21 00:21:30;;;;;;;12.57;10.37;;;;;;;;;;5053985;28;20172;-81
2021/05/21 00:23:55;;;;;;;11.17;9.97;;;;;;;;;;5053935;28;20576;-81
2021/05/21 00:26:23;;;;;;;11.43;10.23;;;;;;;;;;5054322;28;20198;-81
2021/05/21 00:28:48;;;;;;;11.47;10.27;;;;;;;;;;5054087;28;20196;-81
2021/05/21 00:31:13;;;;;;;11.57;10.47;;;;;;;;;;5054223;28;20726;-81
2021/05/21 00:33:39;;;;;;;11.80;10.60;;;;;;;;;;5053944;28;20294;-81
2021/05/21 00:36:04;;;;;;;12.63;10.90;;;;;;;;;;5054087;28;20616;-81
2021/05/21 00:38:30;;;;;;;11.83;10.63;;;;;;;;;;5053792;28;20225;-81
2021/05/21 00:40:55;;;;;;;15.80;11.20;;;;;;;;;;5054264;28;20163;-81
2021/05/21 00:43:20;;;;;;;13.67;10.97;;;;;;;;;;5053927;28;20546;-81
2021/05/21 00:45:46;;;;;;;12.70;11.40;;;;;;;;;;5053600;28;20164;-81
2021/05/21 00:48:11;;;;;;;12.43;11.13;;;;;;;;;;5053817;28;20164;-81
2021/05/21 00:50:36;;;;;;;14.37;11.47;;;;;;;;;;5053801;28;20174;-81
2021/05/21 00:53:05;;;;;;;14.40;11.33;;;;;;;;;;5053728;28;20178;-81
2021/05/21 00:55:31;;;;;;;14.50;11.43;;;;;;;;;;5054140;28;20691;-81
2021/05/21 00:57:56;;;;;;;12.27;10.23;;;;;;;;;;5052368;28;20214;-81
2021/05/21 01:00:22;;;;;;;13.67;11.03;;;;;;;;;;5053756;28;20164;-81
2021/05/21 01:02:47;;;;;;;11.83;10.63;;;;;;;;;;5053692;28;20523;-81
2021/05/21 01:05:13;;;;;;;12.33;11.03;;;;;;;;;;5052364;28;20171;-81
2021/05/21 01:07:38;;;;;;;11.90;10.60;;;;;;;;;;5053597;28;20172;-81
2021/05/21 01:10:04;;;;;;;13.67;11.23;;;;;;;;;;5053891;28;20178;-82
2021/05/21 01:12:29;;;;;;;13.67;10.50;;;;;;;;;;5053535;28;20182;-82
2021/05/21 01:14:55;;;;;;;12.23;10.00;;;;;;;;;;5053713;28;20284;-81
2021/05/21 01:17:22;;;;;;;11.83;10.60;;;;;;;;;;5057714;28;20237;-82
2021/05/21 01:19:48;;;;;;;13.13;11.00;;;;;;;;;;5057852;28;20237;-82
2021/05/21 01:22:14;;;;;;;12.23;10.27;;;;;;;;;;5057575;28;20628;-81
2021/05/21 01:24:40;;;;;;;12.57;10.37;;;;;;;;;;5056671;28;20275;-81
2021/05/21 01:27:07;;;;;;;11.90;10.67;;;;;;;;;;5057589;28;20614;-81
2021/05/21 01:29:32;;;;;;;11.77;10.57;;;;;;;;;;5057221;28;20222;-81
2021/05/21 01:31:58;;;;;;;11.57;10.33;;;;;;;;;;5058482;28;20219;-81
2021/05/21 01:34:23;;;;;;;11.40;9.97;;;;;;;;;;5057086;28;20195;-81
2021/05/21 01:36:49;;;;;;;12.00;10.27;;;;;;;;;;5057121;28;20236;-82
2021/05/21 01:39:14;;;;;;;12.83;10.47;;;;;;;;;;5057060;28;20207;-82
2021/05/21 01:41:42;;;;;;;12.20;11.00;;;;;;;;;;5057304;28;20167;-81
2021/05/21 01:44:09;;;;;;;11.70;10.23;;;;;;;;;;5057898;28;20640;-81
2021/05/21 01:46:34;;;;;;;11.63;10.43;;;;;;;;;;5057076;28;20206;-81
2021/05/21 01:49:00;;;;;;;11.63;9.97;;;;;;;;;;5057027;28;20208;-81
2021/05/21 01:51:25;;;;;;;13.40;10.00;;;;;;;;;;5057767;28;20177;-81
2021/05/21 01:53:51;;;;;;;12.67;10.20;;;;;;;;;;5057111;28;20195;-81
2021/05/21 01:56:16;;;;;;;11.50;10.30;;;;;;;;;;5057139;28;20176;-81
2021/05/21 01:58:41;;;;;;;13.37;10.63;;;;;;;;;;5057591;28;20183;-81
2021/05/21 02:01:06;;;;;;;11.33;10.23;;;;;;;;;;5057311;28;20194;-81
2021/05/21 02:03:32;;;;;;;11.73;10.53;;;;;;;;;;5056729;28;20526;-81
2021/05/21 02:05:57;;;;;;;11.60;10.43;;;;;;;;;;5056586;28;20517;-81
2021/05/21 02:08:24;;;;;;;15.07;10.77;;;;;;;;;;5056567;28;20172;-81
2021/05/21 02:10:49;;;;;;;12.33;10.50;;;;;;;;;;5057345;28;20175;-81
2021/05/21 02:13:14;;;;;;;12.57;10.83;;;;;;;;;;5057034;28;20179;-81
2021/05/21 02:15:40;;;;;;;14.10;11.20;;;;;;;;;;5056390;28;20204;-81
2021/05/21 02:18:05;;;;;;;14.10;10.57;;;;;;;;;;5057508;28;20182;-81
2021/05/21 02:20:30;;;;;;;13.63;10.97;;;;;;;;;;5057236;28;20559;-81
2021/05/21 02:22:57;;;;;;;12.03;10.43;;;;;;;;;;5056909;28;20172;-81
2021/05/21 02:25:22;;;;;;;14.13;10.80;;;;;;;;;;5056203;28;20191;-81
2021/05/21 02:27:48;;;;;;;12.70;10.77;;;;;;;;;;5055785;28;20176;-81
2021/05/21 02:30:13;;;;;;;11.23;10.00;;;;;;;;;;5056329;28;20230;-81
2021/05/21 02:32:39;;;;;;;11.87;10.60;;;;;;;;;;5056394;28;20171;-81
2021/05/21 02:35:05;;;;;;;13.40;10.40;;;;;;;;;;5056788;28;20268;-81
2021/05/21 02:37:30;;;;;;;12.63;10.70;;;;;;;;;;5056330;28;20191;-81
2021/05/21 02:39:56;;;;;;;12.37;11.07;;;;;;;;;;5056011;28;20206;-81
2021/05/21 02:42:21;;;;;;;13.73;11.17;;;;;;;;;;5055968;28;20528;-81
2021/05/21 02:44:46;;;;;;;13.83;10.73;;;;;;;;;;5056460;28;20617;-81
2021/05/21 02:47:12;;;;;;;11.43;10.20;;;;;;;;;;5054896;28;20179;-80
2021/05/21 02:49:37;;;;;;;11.97;10.60;;;;;;;;;;5056118;28;20172;-80
2021/05/21 02:52:02;;;;;;;12.03;10.73;;;;;;;;;;5056147;28;20222;-80
2021/05/21 02:54:28;;;;;;;11.73;10.53;;;;;;;;;;5056100;28;20203;-81
2021/05/21 02:56:53;;;;;;;11.77;10.57;;;;;;;;;;5056307;28;20176;-80
2021/05/21 02:59:18;;;;;;;12.37;10.50;;;;;;;;;;5056187;28;20171;-81
2021/05/21 03:01:44;;;;;;;14.70;11.10;;;;;;;;;;5055617;28;20168;-81
2021/05/21 03:04:09;;;;;;;14.60;10.47;;;;;;;;;;5054490;28;20275;-81
2021/05/21 03:06:35;;;;;;;11.10;10.00;;;;;;;;;;5056306;28;20561;-81
2021/05/21 03:09:00;;;;;;;15.63;10.70;;;;;;;;;;5056062;28;20176;-81
2021/05/21 03:11:25;;;;;;;13.50;10.30;;;;;;;;;;5055462;28;20168;-81
2021/05/21 03:13:51;;;;;;;12.37;9.40;;;;;;;;;;5055904;28;20541;-82
2021/05/21 03:16:16;;;;;;;12.23;10.50;;;;;;;;;;5055530;28;20176;-82
2021/05/21 03:18:41;;;;;;;10.13;9.13;;;;;;;;;;5055834;28;20179;-82
2021/05/21 03:21:07;;;;;;;13.37;9.97;;;;;;;;;;5055521;28;20527;-81
2021/05/21 03:23:33;;;;;;;11.63;9.30;;;;;;;;;;5055476;28;20584;-82
2021/05/21 03:25:58;;;;;;;12.83;9.77;;;;;;;;;;5055326;28;20275;-82
2021/05/21 03:28:24;;;;;;;10.77;9.03;;;;;;;;;;5055292;28;20168;-82
2021/05/21 03:30:49;;;;;;;10.40;9.20;;;;;;;;;;5055387;28;20682;-82
2021/05/21 03:33:15;;;;;;;12.90;9.63;;;;;;;;;;5054970;28;20608;-83
2021/05/21 03:35:40;;;;;;;11.03;9.40;;;;;;;;;;5055174;28;20202;-82
2021/05/21 03:38:06;;;;;;;9.93;8.90;;;;;;;;;;5054568;28;20176;-82
2021/05/21 03:40:32;;;;;;;11.90;9.60;;;;;;;;;;5054835;28;20628;-82
2021/05/21 03:42:58;;;;;;;11.53;9.50;;;;;;;;;;5054792;28;20172;-82
2021/05/21 03:45:23;;;;;;;11.40;9.53;;;;;;;;;;5055284;28;20176;-82
2021/05/21 03:47:48;;;;;;;11.17;9.30;;;;;;;;;;5055028;28;20174;-82
2021/05/21 03:50:17;;;;;;;9.77;8.60;;;;;;;;;;5054674;28;20253;-82
2021/05/21 03:52:42;;;;;;;10.33;9.23;;;;;;;;;;5054641;28;20226;-82
2021/05/21 03:55:10;;;;;;;10.17;9.17;;;;;;;;;;5055129;28;20200;-82
2021/05/21 03:57:35;;;;;;;11.83;9.10;;;;;;;;;;5055055;28;20171;-82
2021/05/21 04:00:01;;;;;;;10.53;9.03;;;;;;;;;;5055316;28;20210;-82
2021/05/21 04:02:26;;;;;;;9.77;8.80;;;;;;;;;;5054398;28;20647;-82
2021/05/21 04:04:52;;;;;;;10.33;9.10;;;;;;;;;;5055011;28;20168;-82
2021/05/21 04:07:17;;;;;;;9.67;8.60;;;;;;;;;;5055015;28;20168;-82
2021/05/21 04:09:42;;;;;;;9.37;8.20;;;;;;;;;;5054879;28;20267;-83
2021/05/21 04:12:08;;;;;;;8.60;7.73;;;;;;;;;;5054509;28;20168;-83
2021/05/21 04:14:33;;;;;;;10.37;8.37;;;;;;;;;;5054426;28;20199;-83
2021/05/21 04:16:58;;;;;;;8.93;8.02;;;;;;;;;;5054380;28;20632;-83
2021/05/21 04:19:24;;;;;;;11.57;7.90;;;;;;;;;;5054109;28;20214;-83
2021/05/21 04:21:50;;;;;;;8.25;7.53;;;;;;;;;;5054369;28;20179;-83
2021/05/21 04:24:15;;;;;;;8.27;7.53;;;;;;;;;;5054072;28;20176;-84
2021/05/21 04:26:40;;;;;;;10.77;7.57;;;;;;;;;;5054272;28;20188;-84
2021/05/21 04:29:06;;;;;;;8.63;7.68;;;;;;;;;;5054550;28;20180;-84
2021/05/21 04:31:31;;;;;;;7.60;7.00;;;;;;;;;;5053902;28;20224;-84
2021/05/21 04:33:56;;;;;;;7.60;6.90;;;;;;;;;;5054111;28;20555;-84
2021/05/21 04:36:22;;;;;;;7.65;6.40;;;;;;;;;;5054122;28;20248;-84
2021/05/21 04:38:48;;;;;;;7.68;6.97;;;;;;;;;;5054139;28;20561;-84
2021/05/21 04:41:13;;;;;;;7.35;6.70;;;;;;;;;;5054084;28;20218;-84
2021/05/21 04:43:39;;;;;;;7.40;6.70;;;;;;;;;;5054307;28;20175;-84
2021/05/21 04:46:06;;;;;;;6.88;6.38;;;;;;;;;;5054030;28;20191;-84
2021/05/21 04:48:31;;;;;;;6.95;6.30;;;;;;;;;;5054303;28;20505;-84
2021/05/21 04:50:57;;;;;;;7.05;6.40;;;;;;;;;;5053695;28;20176;-84
2021/05/21 04:53:23;;;;;;;6.60;6.10;;;;;;;;;;5053862;28;20176;-84
2021/05/21 04:55:48;;;;;;;6.63;6.13;;;;;;;;;;5054051;28;20710;-84
2021/05/21 04:58:13;;;;;;;7.03;6.13;;;;;;;;;;5053875;28;20258;-84
2021/05/21 05:00:39;;;;;;;6.78;6.20;;;;;;;;;;5053770;28;20626;-84
2021/05/21 05:03:09;;;;;;;7.40;6.45;;;;;;;;;;5053428;28;20195;-85
2021/05/21 05:05:34;;;;;;;7.00;6.43;;;;;;;;;;5054091;28;20171;-84
2021/05/21 05:08:00;;;;;;;10.15;6.63;;;;;;;;;;5053976;28;20226;-84
2021/05/21 05:10:25;;;;;;;7.00;6.40;;;;;;;;;;5053705;28;20210;-84
2021/05/21 05:12:52;;;;;;;6.93;6.22;;;;;;;;;;5053938;28;20237;-84
2021/05/21 05:15:17;;;;;;;6.80;6.20;;;;;;;;;;5053890;28;20347;-85
2021/05/21 05:17:42;;;;;;;6.50;6.00;;;;;;;;;;5053615;28;20195;-84
2021/05/21 05:20:08;;;;;;;7.18;6.45;;;;;;;;;;5053215;28;20684;-83
2021/05/21 05:22:33;;;;;;;6.32;5.72;;;;;;;;;;5054378;28;20172;-84
2021/05/21 05:24:59;;;;;;;6.07;5.57;;;;;;;;;;5053252;28;20218;-84
2021/05/21 05:27:24;;;;;;;5.80;5.30;;;;;;;;;;5053534;28;20171;-85
2021/05/21 05:29:50;;;;;;;5.60;5.10;;;;;;;;;;5053311;28;20176;-85
2021/05/21 05:32:15;;;;;;;5.80;5.30;;;;;;;;;;5053932;28;20199;-85
2021/05/21 05:34:41;;;;;;;5.57;5.07;;;;;;;;;;5053405;28;20664;-85
2021/05/21 05:37:06;;;;;;;5.35;4.95;;;;;;;;;;5053579;28;20172;-85
2021/05/21 05:39:31;;;;;;;5.50;5.00;;;;;;;;;;5053534;28;20678;-85
2021/05/21 05:41:56;;;;;;;5.43;4.90;;;;;;;;;;5053110;28;20195;-85
2021/05/21 05:44:22;;;;;;;5.47;5.07;;;;;;;;;;5053948;28;20211;-86
2021/05/21 05:46:47;;;;;;;5.15;4.75;;;;;;;;;;5053352;28;20160;-85
2021/05/21 05:49:13;;;;;;;5.22;4.60;;;;;;;;;;5053631;28;20234;-85
2021/05/21 05:51:40;;;;;;;5.05;4.68;;;;;;;;;;5053342;28;20242;-85
2021/05/21 05:54:05;;;;;;;5.32;4.90;;;;;;;;;;5053579;28;20205;-85
2021/05/21 05:56:30;;;;;;;4.97;4.60;;;;;;;;;;5053081;28;20164;-84
2021/05/21 05:58:56;;;;;;;4.50;4.20;;;;;;;;;;5053194;28;20171;-86
2021/05/21 06:01:21;;;;;;;4.53;4.22;;;;;;;;;;5054104;28;20171;-85
2021/05/21 06:03:46;;;;;;;4.60;4.20;;;;;;;;;;5057050;28;20676;-85
2021/05/21 06:06:12;;;;;;;5.45;4.20;;;;;;;;;;5056993;28;20224;-85
2021/05/21 06:08:37;;;;;;;4.43;4.13;;;;;;;;;;5056965;28;20171;-85
2021/05/21 06:11:02;;;;;;;5.15;4.25;;;;;;;;;;5056867;28;20297;-85
2021/05/21 06:13:28;;;;;;;5.05;4.47;;;;;;;;;;5056902;28;20250;-86
2021/05/21 06:15:53;;;;;;;4.47;4.18;;;;;;;;;;5056326;28;20283;-86
2021/05/21 06:18:19;;;;;;;4.68;4.28;;;;;;;;;;5056746;28;20186;-86
2021/05/21 06:20:45;;;;;;;5.15;4.65;;;;;;;;;;5056692;28;20608;-86
2021/05/21 06:23:10;;;;;;;4.85;4.45;;;;;;;;;;5057115;28;20180;-85
2021/05/21 06:25:58;;;;;;;4.68;4.38;;;;;;;;;;5056198;28;20275;-85
2021/05/21 06:28:24;;;;;;;4.47;4.15;;;;;;;;;;5057152;28;20161;-85
2021/05/21 06:30:53;;;;;;;4.63;4.22;;;;;;;;;;5056211;28;20228;-85
2021/05/21 06:33:18;;;;;;;4.93;4.38;;;;;;;;;;5056280;28;20171;-85
2021/05/21 06:35:44;;;;;;;4.80;4.50;;;;;;;;;;5055483;28;20682;-85
2021/05/21 06:38:09;;;;;;;4.10;3.80;;;;;;;;;;5056369;28;20183;-85
2021/05/21 06:40:35;;;;;;;3.55;3.35;;;;;;;;;;5056333;28;20168;-85
2021/05/21 06:43:06;;;;;;;4.32;3.92;;;;;;;;;;5056250;28;20167;-85
2021/05/21 06:45:31;;;;;;;4.15;3.80;;;;;;;;;;5056266;28;20609;-85
2021/05/21 06:47:56;;;;;;;3.80;3.50;;;;;;;;;;5055878;28;20194;-84
2021/05/21 06:50:22;;;;;;;3.72;3.42;;;;;;;;;;5056389;28;20172;-85
2021/05/21 06:52:47;;;;;;;3.88;3.58;;;;;;;;;;5055779;28;20168;-85
2021/05/21 06:55:13;;;;;;;4.38;4.00;;;;;;;;;;5055720;28;20227;-84
2021/05/21 06:57:38;;;;;;;3.90;3.60;;;;;;;;;;5055738;28;20254;-84
2021/05/21 07:00:04;;;;;;;3.90;3.60;;;;;;;;;;5055648;28;20245;-83
2021/05/21 07:02:29;;;;;;;3.78;3.58;;;;;;;;;;5055344;28;20179;-86
2021/05/21 07:04:55;;;;;;;3.92;3.63;;;;;;;;;;5055833;28;20175;-86
2021/05/21 07:07:20;;;;;;;4.05;3.53;;;;;;;;;;5054390;28;20221;-86
2021/05/21 07:09:46;;;;;;;3.88;3.20;;;;;;;;;;5056047;28;20560;-86
2021/05/21 07:12:11;;;;;;;3.50;3.20;;;;;;;;;;5055540;28;20519;-87
2021/05/21 07:14:36;;;;;;;7.35;6.85;;;;;;;;;;5070612;28;20736;-87
2021/05/21 07:17:03;;;;;;;3.78;3.50;;;;;;;;;;5055591;28;20221;-87
2021/05/21 07:19:29;;;;;;;3.40;3.10;;;;;;;;;;5055370;28;20167;-85
2021/05/21 07:21:54;;;;;;;2.80;2.70;;;;;;;;;;5055580;28;20504;-86
2021/05/21 07:24:19;;;;;;;2.83;2.63;;;;;;;;;;5055114;28;20232;-87
2021/05/21 07:26:45;;;;;;;3.30;3.10;;;;;;;;;;5055308;28;20226;-87
2021/05/21 07:29:10;;;;;;;4.28;3.95;;;;;;;;;;5055411;28;20576;-86
2021/05/21 07:31:35;;;;;;;3.45;3.25;;;;;;;;;;5055709;28;20273;-85
2021/05/21 07:34:01;;;;;;;3.60;3.30;;;;;;;;;;5055575;28;20200;-85
2021/05/21 07:36:30;;;;;;;2.78;2.58;;;;;;;;;;5055276;28;20182;-87
2021/05/21 07:38:56;;;;;;;3.40;3.20;;;;;;;;;;5055262;28;20171;-87
2021/05/21 07:41:25;;;;;;;4.72;4.18;;;;;;;;;;5054429;28;20190;-87
2021/05/21 07:43:51;;;;;;;3.78;3.47;;;;;;;;;;5055197;28;20171;-87
2021/05/21 07:46:16;;;;;;;5.20;4.70;;;;;;;;;;5049818;28;20580;-88
2021/05/21 07:48:42;;;;;;;3.10;2.90;;;;;;;;;;5054170;28;20222;-89
2021/05/21 07:51:07;;;;;;;2.92;2.72;;;;;;;;;;5051761;28;20543;-87
2021/05/21 07:53:33;;;;;;;3.28;3.05;;;;;;;;;;5052856;28;20168;-88
2021/05/21 07:55:59;;;;;;;3.20;3.00;;;;;;;;;;5052939;28;20208;-88
2021/05/21 07:58:25;;;;;;;3.30;3.10;;;;;;;;;;5052950;28;20171;-88
2021/05/21 08:00:52;;;;;;;3.17;2.70;;;;;;;;;;5052970;28;20517;-88
2021/05/21 08:03:17;;;;;;;3.33;3.03;;;;;;;;;;5054694;28;20168;-83
2021/05/21 08:05:47;;;;;;;2.47;2.38;;;;;;;;;;5050032;28;20262;-85
2021/05/21 08:08:13;;;;;;;2.63;2.53;;;;;;;;;;5034687;28;20600;-84
2021/05/21 08:10:39;;;;;;;2.70;2.50;;;;;;;;;;5034344;28;20210;-84
2021/05/21 08:13:04;;;;;;;3.38;2.75;;;;;;;;;;5034207;28;20165;-84
2021/05/21 08:15:30;;;;;;;2.80;2.65;;;;;;;;;;5034264;28;20284;-84
2021/05/21 08:17:55;;;;;;;4.28;3.08;;;;;;;;;;5034364;28;20177;-86
2021/05/21 08:20:20;;;;;;;4.13;3.83;;;;;;;;;;5046810;28;20210;-86
2021/05/21 08:22:47;;;;;;;3.50;2.97;;;;;;;;;;5074040;28;20167;-87
2021/05/21 08:25:13;;;;;;;3.30;3.10;;;;;;;;;;5073127;28;20195;-86
2021/05/21 08:27:38;;;;;;;2.80;2.60;;;;;;;;;;5072121;28;20163;-86
2021/05/21 08:30:04;;;;;;;2.75;2.53;;;;;;;;;;5072470;28;20219;-86
2021/05/21 08:32:29;;;;;;;3.03;2.83;;;;;;;;;;5072715;28;20179;-85
2021/05/21 08:34:55;;;;;;;3.47;2.70;;;;;;;;;;5071915;28;20196;-85
2021/05/21 08:37:20;;;;;;;3.30;2.67;;;;;;;;;;5073627;28;20175;-85
2021/05/21 08:39:45;;;;;;;3.10;2.90;;;;;;;;;;5074031;28;20624;-85
2021/05/21 08:42:12;;;;;;;3.20;3.00;;;;;;;;;;5047979;28;20207;-84
2021/05/21 08:44:44;;;;;;;3.00;2.75;;;;;;;;;;5032344;28;20623;-84
2021/05/21 08:47:09;;;;;;;5.38;3.05;;;;;;;;;;5045483;28;20168;-84
2021/05/21 08:49:35;;;;;;;3.03;2.70;;;;;;;;;;5044387;28;20568;-86
2021/05/21 08:52:03;;;;;;;3.20;3.00;;;;;;;;;;5033983;28;20251;-83
2021/05/21 08:54:36;;;;;;;3.10;2.88;;;;;;;;;;5043065;28;20634;-84
2021/05/21 08:57:05;;;;;;;3.00;2.80;;;;;;;;;;5033001;28;20164;-84
2021/05/21 08:59:32;;;;;;;3.90;3.60;;;;;;;;;;5038341;28;20605;-84
2021/05/21 09:02:00;;;;;;;2.83;2.63;;;;;;;;;;5040727;28;20168;-85
2021/05/21 09:04:45;;;;;;;3.30;2.72;;;;;;;;;;5050015;28;20168;-85
2021/05/21 09:07:29;;;;;;;4.18;3.20;;;;;;;;;;5039690;28;20636;-84
2021/05/21 09:09:56;;;;;;;4.25;2.90;;;;;;;;;;5046156;28;20184;-85
2021/05/21 09:12:23;;;;;;;2.95;2.75;;;;;;;;;;5049632;28;20200;-84
2021/05/21 09:15:08;;;;;;;3.67;3.38;;;;;;;;;;5048235;28;20208;-84
2021/05/21 09:17:34;;;;;;;3.10;2.90;;;;;;;;;;5042717;28;20580;-85
2021/05/21 09:20:00;;;;;;;3.65;3.35;;;;;;;;;;5042490;28;20173;-84
2021/05/21 09:22:27;;;;;;;3.28;3.05;;;;;;;;;;5042427;28;20237;-84
2021/05/21 09:24:53;;;;;;;3.08;2.88;;;;;;;;;;5043515;28;20172;-84
2021/05/21 09:27:19;;;;;;;3.28;3.00;;;;;;;;;;5042110;28;20176;-84
2021/05/21 09:29:49;;;;;;;5.03;3.28;;;;;;;;;;5048199;28;20306;-85
2021/05/21 09:32:19;;;;;;;3.90;3.00;;;;;;;;;;5047854;28;20183;-86
2021/05/21 09:34:48;;;;;;;6.15;4.20;;;;;;;;;;5052629;28;20203;-84
2021/05/21 09:37:23;;;;;;;2.90;2.70;;;;;;;;;;5053839;28;20305;-85
2021/05/21 09:40:09;;;;;;;3.53;3.22;;;;;;;;;;5055773;28;20175;-86
2021/05/21 09:42:47;;;;;;;5.75;4.00;;;;;;;;;;5054689;28;20640;-85
2021/05/21 09:45:13;;;;;;;3.25;3.05;;;;;;;;;;5055624;28;20172;-85
2021/05/21 09:47:47;;;;;;;3.08;2.88;;;;;;;;;;5055270;28;20172;-86
2021/05/21 09:50:13;;;;;;;3.00;2.80;;;;;;;;;;5054860;28;20175;-85
2021/05/21 09:52:43;;;;;;;3.55;3.25;;;;;;;;;;5055482;28;20214;-86
2021/05/21 09:55:08;;;;;;;3.80;3.50;;;;;;;;;;5055217;28;20261;-86
2021/05/21 09:57:36;;;;;;;2.72;2.63;;;;;;;;;;5056009;28;20218;-86
2021/05/21 10:00:06;;;;;;;3.67;3.08;;;;;;;;;;5057174;28;20183;-86
2021/05/21 10:02:32;;;;;;;3.53;3.22;;;;;;;;;;5056806;28;20221;-86
2021/05/21 10:04:57;;;;;;;4.03;3.40;;;;;;;;;;5056692;28;20347;-86
2021/05/21 10:07:23;;;;;;;3.33;3.13;;;;;;;;;;5057259;28;20642;-86
2021/05/21 10:09:49;;;;;;;3.90;2.90;;;;;;;;;;5056899;28;20176;-86
2021/05/21 10:12:14;;;;;;;3.30;3.00;;;;;;;;;;5055557;28;20195;-87
2021/05/21 10:14:41;;;;;;;3.10;2.90;;;;;;;;;;5054053;28;20199;-86
2021/05/21 10:17:09;;;;;;;4.05;2.90;;;;;;;;;;5056618;28;20187;-87
2021/05/21 10:19:34;;;;;;;3.00;2.80;;;;;;;;;;5056688;28;20501;-86
2021/05/21 10:22:00;;;;;;;2.88;2.67;;;;;;;;;;5056587;28;20172;-87
2021/05/21 10:24:29;;;;;;;2.92;2.78;;;;;;;;;;5050169;28;20180;-86
2021/05/21 10:26:55;;;;;;;2.88;2.78;;;;;;;;;;5054342;28;20203;-86
2021/05/21 10:29:22;;;;;;;2.88;2.78;;;;;;;;;;5054127;28;20168;-86
2021/05/21 10:31:51;;;;;;;3.10;2.80;;;;;;;;;;5053285;28;20318;-85
2021/05/21 10:34:22;;;;;;;3.10;2.83;;;;;;;;;;5053390;28;20195;-85
2021/05/21 10:36:49;;;;;;;3.00;2.80;;;;;;;;;;5057354;28;20222;-86
2021/05/21 10:39:19;;;;;;;4.07;3.60;;;;;;;;;;5054279;28;20163;-87
2021/05/21 10:41:55;;;;;;;3.40;3.20;;;;;;;;;;5053775;28;20681;-86
2021/05/21 10:44:36;;;;;;;3.00;2.80;;;;;;;;;;5055403;28;20207;-85
2021/05/21 10:47:22;;;;;;;2.90;2.70;;;;;;;;;;5046988;28;20183;-84
2021/05/21 10:49:50;;;;;;;3.40;3.15;;;;;;;;;;5045023;28;20674;-84
2021/05/21 10:52:15;;;;;;;3.70;3.40;;;;;;;;;;5045328;28;20175;-84
2021/05/21 10:54:44;;;;;;;3.75;3.30;;;;;;;;;;5046318;28;20214;-84
2021/05/21 10:57:19;;;;;;;3.58;3.28;;;;;;;;;;5054593;28;20182;-84
2021/05/21 10:59:51;;;;;;;3.83;3.30;;;;;;;;;;5062548;28;20601;-84
2021/05/21 11:02:16;;;;;;;3.58;3.25;;;;;;;;;;5052208;28;20551;-84
2021/05/21 11:04:42;;;;;;;3.10;2.90;;;;;;;;;;5051244;28;20184;-84
2021/05/21 11:07:07;;;;;;;3.38;3.15;;;;;;;;;;5034311;28;20192;-84
2021/05/21 11:09:41;;;;;;;7.38;3.67;;;;;;;;;;5046195;28;20233;-84
2021/05/21 11:12:14;;;;;;;4.20;3.90;;;;;;;;;;5033510;28;20179;-84
2021/05/21 11:14:39;;;;;;;4.53;4.13;;;;;;;;;;5033130;28;20211;-85
2021/05/21 11:17:24;;;;;;;5.97;3.30;;;;;;;;;;5045645;28;20180;-86
2021/05/21 11:19:54;;;;;;;3.47;3.20;;;;;;;;;;5054131;28;20199;-85
2021/05/21 11:22:22;;;;;;;2.85;2.65;;;;;;;;;;5050796;28;20184;-85
2021/05/21 11:24:50;;;;;;;3.10;2.90;;;;;;;;;;5055224;28;20213;-86
2021/05/21 11:27:15;;;;;;;3.25;3.05;;;;;;;;;;5044959;28;20656;-86
2021/05/21 11:29:42;;;;;;;3.60;3.30;;;;;;;;;;5044507;28;20319;-86
2021/05/21 11:32:08;;;;;;;3.88;3.45;;;;;;;;;;5047750;28;20184;-87
2021/05/21 11:34:36;;;;;;;3.70;3.40;;;;;;;;;;5045109;28;20207;-87
2021/05/21 11:37:04;;;;;;;3.10;2.90;;;;;;;;;;5042363;28;20578;-87
2021/05/21 11:39:29;;;;;;;3.10;2.90;;;;;;;;;;5044746;28;20181;-87
2021/05/21 11:41:57;;;;;;;3.78;3.15;;;;;;;;;;5045266;28;20171;-86
2021/05/21 11:44:26;;;;;;;3.72;3.42;;;;;;;;;;5062721;28;20194;-87
2021/05/21 11:47:08;;;;;;;3.25;2.80;;;;;;;;;;5047129;28;20168;-86
2021/05/21 11:49:34;;;;;;;3.70;2.90;;;;;;;;;;5045007;28;20611;-87
2021/05/21 11:52:01;;;;;;;3.33;2.60;;;;;;;;;;5043398;28;20203;-87
2021/05/21 11:54:27;;;;;;;2.70;2.47;;;;;;;;;;5043894;28;20204;-86
2021/05/21 11:56:53;;;;;;;3.42;2.70;;;;;;;;;;5045475;28;20169;-86
2021/05/21 11:59:21;;;;;;;3.20;3.00;;;;;;;;;;5042275;28;20219;-86
2021/05/21 12:02:08;;;;;;;3.45;3.15;;;;;;;;;;5043834;28;20306;-86
2021/05/21 12:04:40;;;;;;;3.17;2.70;;;;;;;;;;5037343;28;20263;-86
2021/05/21 12:07:06;;;;;;;3.78;2.60;;;;;;;;;;5034414;28;20219;-86
2021/05/21 12:09:32;;;;;;;2.80;2.60;;;;;;;;;;5033479;28;20169;-87
2021/05/21 12:11:58;;;;;;;4.35;3.15;;;;;;;;;;5033762;28;20641;-87
2021/05/21 12:14:27;;;;;;;3.15;2.95;;;;;;;;;;5031638;28;20200;-86
2021/05/21 12:16:53;;;;;;;3.10;2.90;;;;;;;;;;5033602;28;20172;-86
2021/05/21 12:19:19;;;;;;;2.90;2.70;;;;;;;;;;5040812;28;20183;-86
2021/05/21 12:21:50;;;;;;;3.20;3.00;;;;;;;;;;5055321;28;20228;-86
2021/05/21 12:24:18;;;;;;;3.20;2.72;;;;;;;;;;5054615;28;20624;-87
2021/05/21 12:26:45;;;;;;;4.18;2.90;;;;;;;;;;5054089;28;20214;-87
2021/05/21 12:29:11;;;;;;;3.45;3.15;;;;;;;;;;5069792;28;20278;-87
2021/05/21 12:31:40;;;;;;;3.38;3.00;;;;;;;;;;5054214;28;20743;-87
2021/05/21 12:34:06;;;;;;;5.40;2.75;;;;;;;;;;5053973;28;20178;-87
2021/05/21 12:36:32;;;;;;;3.17;2.88;;;;;;;;;;5068883;28;20191;-87
2021/05/21 12:39:00;;;;;;;3.22;2.92;;;;;;;;;;5053884;28;20211;-86
2021/05/21 12:41:32;;;;;;;3.15;2.95;;;;;;;;;;5054346;28;20172;-86
2021/05/21 12:44:11;;;;;;;3.47;3.17;;;;;;;;;;5051640;28;20190;-87
2021/05/21 12:46:37;;;;;;;3.10;2.90;;;;;;;;;;5052064;28;20171;-88
2021/05/21 12:49:05;;;;;;;5.90;3.35;;;;;;;;;;5032398;28;20172;-87
2021/05/21 12:51:31;;;;;;;3.28;2.97;;;;;;;;;;5030925;28;20204;-88
2021/05/21 12:54:36;;;;;;;4.40;3.38;;;;;;;;;;5032418;28;20192;-88
2021/05/21 12:57:18;;;;;;;3.42;3.13;;;;;;;;;;5012694;28;20213;-85
2021/05/21 12:59:45;;;;;;;3.30;3.00;;;;;;;;;;5029726;28;20985;-85
2021/05/21 13:02:11;;;;;;;4.47;3.40;;;;;;;;;;5030785;28;20191;-85
2021/05/21 13:04:37;;;;;;;3.83;3.40;;;;;;;;;;5046999;28;20209;-85
2021/05/21 13:07:03;;;;;;;3.85;3.50;;;;;;;;;;5053753;28;20250;-85
2021/05/21 13:09:32;;;;;;;3.58;3.30;;;;;;;;;;5054006;28;20159;-85
2021/05/21 13:11:58;;;;;;;5.88;3.20;;;;;;;;;;5053738;28;20171;-84
2021/05/21 13:14:26;;;;;;;3.85;3.40;;;;;;;;;;5052370;28;20202;-84
2021/05/21 13:16:53;;;;;;;3.15;2.92;;;;;;;;;;5051330;28;20243;-84
2021/05/21 13:19:29;;;;;;;3.30;3.10;;;;;;;;;;5053682;28;20493;-84
2021/05/21 13:21:56;;;;;;;4.70;3.28;;;;;;;;;;5054002;28;20186;-84
2021/05/21 13:24:23;;;;;;;3.92;3.03;;;;;;;;;;5053430;28;20187;-84
2021/05/21 13:26:48;;;;;;;4.53;3.33;;;;;;;;;;5053161;28;20551;-84
2021/05/21 13:29:14;;;;;;;3.50;3.20;;;;;;;;;;5053451;28;20168;-84
2021/05/21 13:31:39;;;;;;;3.22;2.92;;;;;;;;;;5053086;28;20307;-85
2021/05/21 13:34:04;;;;;;;3.00;2.80;;;;;;;;;;5053168;28;20235;-85
2021/05/21 13:36:30;;;;;;;4.47;3.05;;;;;;;;;;5053243;28;20211;-86
2021/05/21 13:38:55;;;;;;;3.47;3.03;;;;;;;;;;5053565;28;20674;-86
2021/05/21 13:41:20;;;;;;;3.05;2.85;;;;;;;;;;5053382;28;20254;-86
2021/05/21 13:43:46;;;;;;;3.05;2.83;;;;;;;;;;5053673;28;20325;-86
2021/05/21 13:46:11;;;;;;;3.30;2.88;;;;;;;;;;5053085;28;20171;-87
2021/05/21 13:48:37;;;;;;;4.32;3.05;;;;;;;;;;5053459;28;20172;-87
2021/05/21 13:51:02;;;;;;;3.13;2.83;;;;;;;;;;5053041;28;20171;-86
2021/05/21 13:53:27;;;;;;;4.18;3.15;;;;;;;;;;5053395;28;20263;-87
2021/05/21 13:55:52;;;;;;;18.88;16.98;;;;;;;;;;5051599;28;20675;-86
2021/05/21 13:58:18;;;;;;;4.93;3.95;;;;;;;;;;5052491;28;20191;-86
2021/05/21 14:00:43;;;;;;;5.05;3.78;;;;;;;;;;5052917;28;20167;-86
2021/05/21 14:03:08;;;;;;;36.17;32.47;;;;;;;;;;5052013;28;20179;-86
2021/05/21 14:05:34;;;;;;;7.68;6.93;;;;;;;;;;5052031;28;20621;-84
2021/05/21 14:07:59;;;;;;;7.10;6.47;;;;;;;;;;5050426;28;20178;-87
2021/05/21 14:10:24;;;;;;;5.00;3.35;;;;;;;;;;5051429;28;20184;-86
2021/05/21 14:12:50;;;;;;;3.25;2.95;;;;;;;;;;5051755;28;20164;-86
2021/05/21 14:15:15;;;;;;;4.75;3.00;;;;;;;;;;5051483;28;20277;-87
2021/05/21 14:17:41;;;;;;;3.80;2.88;;;;;;;;;;5051782;28;20226;-87
2021/05/21 14:20:06;;;;;;;6.90;3.60;;;;;;;;;;5050123;28;20190;-86
2021/05/21 14:22:37;;;;;;;6.28;3.83;;;;;;;;;;5053327;28;20255;-88
2021/05/21 14:25:04;;;;;;;5.22;3.80;;;;;;;;;;5056650;28;20160;-88
2021/05/21 14:27:30;;;;;;;3.75;3.28;;;;;;;;;;5056524;28;20262;-87
2021/05/21 14:29:55;;;;;;;3.25;2.95;;;;;;;;;;5071679;28;20280;-88
2021/05/21 14:32:20;;;;;;;5.40;4.13;;;;;;;;;;5057000;28;20176;-87
2021/05/21 14:34:46;;;;;;;5.28;4.85;;;;;;;;;;5056107;28;20304;-87